sensor_id;sensor_type;location;lat;lon;timestamp;pressure;altitude;pressure_sealevel;temperature;humidity
65013;BME280;51715;39.432;-77.518;2024-02-14T17:07:46;100037.63;;;13.85;16.70
65013;BME280;51715;39.432;-77.518;2024-02-14T17:10:18;100026.52;;;14.68;15.93
65013;BME280;51715;39.432;-77.518;2024-02-14T17:12:48;100029.52;;;14.91;15.59
65013;BME280;51715;39.432;-77.518;2024-02-14T17:15:16;100015.89;;;14.82;15.16
65013;BME280;51715;39.432;-77.518;2024-02-14T17:17:44;100012.91;;;14.56;14.66
65013;BME280;51715;39.432;-77.518;2024-02-14T17:20:12;100009.70;;;14.70;15.44
65013;BME280;51715;39.432;-77.518;2024-02-14T17:22:40;100003.54;;;15.94;14.43
65013;BME280;51715;39.432;-77.518;2024-02-14T17:25:11;99995.35;;;15.63;14.90
65013;BME280;51715;39.432;-77.518;2024-02-14T17:27:39;99990.99;;;14.41;14.98
65013;BME280;51715;39.432;-77.518;2024-02-14T17:30:08;99985.21;;;12.36;16.61
65013;BME280;51715;39.432;-77.518;2024-02-14T17:32:36;99995.51;;;13.62;16.06
65013;BME280;51715;39.432;-77.518;2024-02-14T17:35:06;99995.13;;;13.41;16.35
65013;BME280;51715;39.432;-77.518;2024-02-14T17:37:35;99989.98;;;13.16;16.04
65013;BME280;51715;39.432;-77.518;2024-02-14T17:40:04;99983.76;;;14.70;15.08
65013;BME280;51715;39.432;-77.518;2024-02-14T17:42:33;99992.89;;;14.47;15.91
65013;BME280;51715;39.432;-77.518;2024-02-14T17:45:01;99990.91;;;14.59;14.59
65013;BME280;51715;39.432;-77.518;2024-02-14T17:47:30;99984.86;;;15.51;14.29
65013;BME280;51715;39.432;-77.518;2024-02-14T17:49:59;99980.07;;;15.35;14.33
65013;BME280;51715;39.432;-77.518;2024-02-14T17:52:27;99985.95;;;15.34;15.20
65013;BME280;51715;39.432;-77.518;2024-02-14T17:54:57;99976.61;;;15.91;13.93
65013;BME280;51715;39.432;-77.518;2024-02-14T17:57:28;99973.71;;;15.03;14.43
65013;BME280;51715;39.432;-77.518;2024-02-14T17:59:59;99973.02;;;14.58;14.97
65013;BME280;51715;39.432;-77.518;2024-02-14T18:02:28;99970.23;;;15.74;14.32
65013;BME280;51715;39.432;-77.518;2024-02-14T18:04:57;99964.63;;;15.65;13.84
65013;BME280;51715;39.432;-77.518;2024-02-14T18:07:26;99969.11;;;15.77;13.84
65013;BME280;51715;39.432;-77.518;2024-02-14T18:09:53;99968.37;;;14.38;14.91
65013;BME280;51715;39.432;-77.518;2024-02-14T18:12:22;99968.14;;;15.18;13.60
65013;BME280;51715;39.432;-77.518;2024-02-14T18:14:53;99956.36;;;14.89;14.58
65013;BME280;51715;39.432;-77.518;2024-02-14T18:17:21;99948.19;;;15.48;14.36
65013;BME280;51715;39.432;-77.518;2024-02-14T18:19:49;99956.56;;;11.63;17.47
65013;BME280;51715;39.432;-77.518;2024-02-14T18:22:19;99956.84;;;11.77;17.94
65013;BME280;51715;39.432;-77.518;2024-02-14T18:24:48;99956.85;;;13.43;16.15
65013;BME280;51715;39.432;-77.518;2024-02-14T18:27:19;99951.82;;;13.10;16.68
65013;BME280;51715;39.432;-77.518;2024-02-14T18:29:47;99950.41;;;13.85;16.44
65013;BME280;51715;39.432;-77.518;2024-02-14T18:32:15;99945.16;;;14.22;15.10
65013;BME280;51715;39.432;-77.518;2024-02-14T18:34:42;99948.05;;;13.49;15.68
65013;BME280;51715;39.432;-77.518;2024-02-14T18:37:10;99950.85;;;12.54;16.80
65013;BME280;51715;39.432;-77.518;2024-02-14T18:39:39;99942.34;;;13.35;16.87
65013;BME280;51715;39.432;-77.518;2024-02-14T18:42:07;99935.26;;;14.12;16.07
65013;BME280;51715;39.432;-77.518;2024-02-14T18:44:37;99941.86;;;11.88;17.43
65013;BME280;51715;39.432;-77.518;2024-02-14T18:47:05;99946.74;;;11.76;17.81
65013;BME280;51715;39.432;-77.518;2024-02-14T18:49:35;99940.35;;;12.82;17.03
65013;BME280;51715;39.432;-77.518;2024-02-14T18:52:05;99936.00;;;12.82;17.09
65013;BME280;51715;39.432;-77.518;2024-02-14T18:54:33;99939.41;;;13.29;15.62
65013;BME280;51715;39.432;-77.518;2024-02-14T18:57:02;99936.34;;;13.61;16.19
65013;BME280;51715;39.432;-77.518;2024-02-14T18:59:33;99934.62;;;13.60;15.48
65013;BME280;51715;39.432;-77.518;2024-02-14T19:02:01;99932.28;;;12.81;16.32
65013;BME280;51715;39.432;-77.518;2024-02-14T19:04:29;99920.03;;;13.61;15.90
65013;BME280;51715;39.432;-77.518;2024-02-14T19:06:58;99913.23;;;14.20;16.46
65013;BME280;51715;39.432;-77.518;2024-02-14T19:09:27;99922.83;;;13.69;15.43
65013;BME280;51715;39.432;-77.518;2024-02-14T19:11:55;99922.57;;;14.11;17.36
65013;BME280;51715;39.432;-77.518;2024-02-14T19:14:22;99925.14;;;14.66;15.50
65013;BME280;51715;39.432;-77.518;2024-02-14T19:16:52;99927.53;;;14.84;15.98
65013;BME280;51715;39.432;-77.518;2024-02-14T19:19:21;99932.02;;;15.59;15.08
65013;BME280;51715;39.432;-77.518;2024-02-14T19:21:49;99925.14;;;16.39;14.55
65013;BME280;51715;39.432;-77.518;2024-02-14T19:24:17;99923.87;;;16.64;14.35
65013;BME280;51715;39.432;-77.518;2024-02-14T19:26:46;99924.19;;;16.91;13.33
65013;BME280;51715;39.432;-77.518;2024-02-14T19:29:15;99927.39;;;15.83;13.49
65013;BME280;51715;39.432;-77.518;2024-02-14T19:31:43;99922.12;;;16.52;13.35
65013;BME280;51715;39.432;-77.518;2024-02-14T19:34:12;99916.41;;;16.29;13.47
65013;BME280;51715;39.432;-77.518;2024-02-14T19:36:40;99930.56;;;16.24;13.50
65013;BME280;51715;39.432;-77.518;2024-02-14T19:39:08;99931.33;;;14.49;14.60
65013;BME280;51715;39.432;-77.518;2024-02-14T19:41:37;99940.56;;;13.73;15.06
65013;BME280;51715;39.432;-77.518;2024-02-14T19:44:07;99934.09;;;12.47;15.45
65013;BME280;51715;39.432;-77.518;2024-02-14T19:46:35;99944.83;;;11.09;17.69
65013;BME280;51715;39.432;-77.518;2024-02-14T19:49:03;99942.99;;;10.10;18.10
65013;BME280;51715;39.432;-77.518;2024-02-14T19:51:33;99929.14;;;10.64;18.40
65013;BME280;51715;39.432;-77.518;2024-02-14T19:54:01;99936.51;;;9.79;19.11
65013;BME280;51715;39.432;-77.518;2024-02-14T19:56:30;99942.48;;;9.55;19.71
65013;BME280;51715;39.432;-77.518;2024-02-14T19:58:59;99946.71;;;9.12;20.13
65013;BME280;51715;39.432;-77.518;2024-02-14T20:01:33;99944.97;;;8.47;21.40
65013;BME280;51715;39.432;-77.518;2024-02-14T20:04:03;99939.46;;;8.10;21.82
65013;BME280;51715;39.432;-77.518;2024-02-14T20:06:32;99934.96;;;8.66;20.64
65013;BME280;51715;39.432;-77.518;2024-02-14T20:09:00;99939.42;;;6.69;23.29
65013;BME280;51715;39.432;-77.518;2024-02-14T20:11:29;99936.81;;;5.07;24.75
65013;BME280;51715;39.432;-77.518;2024-02-14T20:13:58;99941.10;;;4.37;25.90
65013;BME280;51715;39.432;-77.518;2024-02-14T20:16:27;99946.75;;;4.45;26.67
65013;BME280;51715;39.432;-77.518;2024-02-14T20:18:57;99949.46;;;5.26;25.26
65013;BME280;51715;39.432;-77.518;2024-02-14T20:21:29;99952.60;;;4.66;26.28
65013;BME280;51715;39.432;-77.518;2024-02-14T20:23:58;99955.90;;;6.29;24.40
65013;BME280;51715;39.432;-77.518;2024-02-14T20:26:32;99949.67;;;7.18;22.85
65013;BME280;51715;39.432;-77.518;2024-02-14T20:29:01;99952.54;;;7.64;21.88
65013;BME280;51715;39.432;-77.518;2024-02-14T20:31:30;99955.10;;;7.60;22.88
65013;BME280;51715;39.432;-77.518;2024-02-14T20:33:59;99959.10;;;7.48;22.97
65013;BME280;51715;39.432;-77.518;2024-02-14T20:36:28;99971.24;;;6.92;23.31
65013;BME280;51715;39.432;-77.518;2024-02-14T20:38:57;99974.75;;;7.13;22.75
65013;BME280;51715;39.432;-77.518;2024-02-14T20:41:26;99972.45;;;7.45;22.82
65013;BME280;51715;39.432;-77.518;2024-02-14T20:43:55;99971.89;;;7.22;22.93
65013;BME280;51715;39.432;-77.518;2024-02-14T20:46:23;99969.53;;;6.79;23.33
65013;BME280;51715;39.432;-77.518;2024-02-14T20:48:52;99960.13;;;7.40;23.46
65013;BME280;51715;39.432;-77.518;2024-02-14T20:51:20;99971.21;;;6.66;23.29
65013;BME280;51715;39.432;-77.518;2024-02-14T20:53:48;99976.14;;;7.19;22.80
65013;BME280;51715;39.432;-77.518;2024-02-14T20:56:17;99971.63;;;7.63;22.77
65013;BME280;51715;39.432;-77.518;2024-02-14T20:58:44;99968.37;;;7.13;22.95
65013;BME280;51715;39.432;-77.518;2024-02-14T21:01:14;99969.51;;;6.19;23.89
65013;BME280;51715;39.432;-77.518;2024-02-14T21:03:42;99962.96;;;7.17;23.16
65013;BME280;51715;39.432;-77.518;2024-02-14T21:06:12;99966.62;;;7.44;22.80
65013;BME280;51715;39.432;-77.518;2024-02-14T21:08:40;99961.50;;;7.04;22.98
65013;BME280;51715;39.432;-77.518;2024-02-14T21:11:08;99962.17;;;7.03;22.27
65013;BME280;51715;39.432;-77.518;2024-02-14T21:13:37;99967.00;;;6.66;22.89
65013;BME280;51715;39.432;-77.518;2024-02-14T21:16:05;99970.69;;;6.07;23.67
65013;BME280;51715;39.432;-77.518;2024-02-14T21:18:34;99970.58;;;6.25;23.54
65013;BME280;51715;39.432;-77.518;2024-02-14T21:21:02;99975.56;;;7.09;23.82
65013;BME280;51715;39.432;-77.518;2024-02-14T21:23:30;99973.68;;;7.04;23.01
65013;BME280;51715;39.432;-77.518;2024-02-14T21:26:00;99975.23;;;6.73;23.28
65013;BME280;51715;39.432;-77.518;2024-02-14T21:28:30;99990.72;;;7.04;23.34
65013;BME280;51715;39.432;-77.518;2024-02-14T21:30:59;99993.60;;;7.08;22.76
65013;BME280;51715;39.432;-77.518;2024-02-14T21:33:27;99985.24;;;6.70;23.90
65013;BME280;51715;39.432;-77.518;2024-02-14T21:35:55;99983.75;;;6.84;23.43
65013;BME280;51715;39.432;-77.518;2024-02-14T21:38:25;99981.68;;;6.19;23.44
65013;BME280;51715;39.432;-77.518;2024-02-14T21:40:55;99984.41;;;4.71;25.77
65013;BME280;51715;39.432;-77.518;2024-02-14T21:43:23;99984.48;;;5.21;25.76
65013;BME280;51715;39.432;-77.518;2024-02-14T21:45:54;99982.34;;;6.44;24.55
65013;BME280;51715;39.432;-77.518;2024-02-14T21:48:22;99988.08;;;5.00;24.97
65013;BME280;51715;39.432;-77.518;2024-02-14T21:50:50;99990.20;;;5.74;24.48
65013;BME280;51715;39.432;-77.518;2024-02-14T21:53:18;99992.69;;;6.29;24.29
65013;BME280;51715;39.432;-77.518;2024-02-14T21:55:48;99999.83;;;6.36;23.96
65013;BME280;51715;39.432;-77.518;2024-02-14T21:58:17;100011.70;;;6.24;24.27
65013;BME280;51715;39.432;-77.518;2024-02-14T22:00:46;100019.65;;;6.80;23.72
65013;BME280;51715;39.432;-77.518;2024-02-14T22:03:15;100025.20;;;5.83;24.82
65013;BME280;51715;39.432;-77.518;2024-02-14T22:05:43;100031.71;;;5.82;24.33
65013;BME280;51715;39.432;-77.518;2024-02-14T22:08:12;100030.90;;;5.56;24.51
65013;BME280;51715;39.432;-77.518;2024-02-14T22:10:40;100030.57;;;5.88;24.89
65013;BME280;51715;39.432;-77.518;2024-02-14T22:13:10;100032.90;;;6.81;24.73
65013;BME280;51715;39.432;-77.518;2024-02-14T22:15:38;100034.76;;;6.75;24.46
65013;BME280;51715;39.432;-77.518;2024-02-14T22:18:07;100038.00;;;7.03;23.98
65013;BME280;51715;39.432;-77.518;2024-02-14T22:20:36;100041.98;;;6.73;24.62
65013;BME280;51715;39.432;-77.518;2024-02-14T22:23:07;100047.17;;;6.32;24.41
65013;BME280;51715;39.432;-77.518;2024-02-14T22:25:37;100046.06;;;6.61;24.70
65013;BME280;51715;39.432;-77.518;2024-02-14T22:28:05;100053.63;;;6.06;24.41
65013;BME280;51715;39.432;-77.518;2024-02-14T22:30:34;100058.80;;;6.28;25.15
65013;BME280;51715;39.432;-77.518;2024-02-14T22:33:04;100064.39;;;6.39;24.88
65013;BME280;51715;39.432;-77.518;2024-02-14T22:35:32;100064.23;;;6.31;24.02
65013;BME280;51715;39.432;-77.518;2024-02-14T22:38:00;100065.54;;;5.78;25.42
65013;BME280;51715;39.432;-77.518;2024-02-14T22:40:29;100069.24;;;5.69;25.48
65013;BME280;51715;39.432;-77.518;2024-02-14T22:42:59;100072.90;;;5.46;25.91
65013;BME280;51715;39.432;-77.518;2024-02-14T22:45:28;100073.28;;;5.43;25.56
65013;BME280;51715;39.432;-77.518;2024-02-14T22:48:01;100070.90;;;6.10;25.01
65013;BME280;51715;39.432;-77.518;2024-02-14T22:50:29;100071.75;;;6.04;25.08
65013;BME280;51715;39.432;-77.518;2024-02-14T22:52:57;100078.40;;;6.27;24.61
65013;BME280;51715;39.432;-77.518;2024-02-14T22:55:27;100080.79;;;5.60;25.65
65013;BME280;51715;39.432;-77.518;2024-02-14T22:57:55;100083.77;;;5.97;25.31
65013;BME280;51715;39.432;-77.518;2024-02-14T23:00:26;100085.42;;;6.34;24.87
65013;BME280;51715;39.432;-77.518;2024-02-14T23:02:57;100083.58;;;5.76;24.94
65013;BME280;51715;39.432;-77.518;2024-02-14T23:05:27;100090.41;;;6.20;24.96
65013;BME280;51715;39.432;-77.518;2024-02-14T23:07:57;100095.03;;;6.27;24.77
65013;BME280;51715;39.432;-77.518;2024-02-14T23:10:25;100098.68;;;6.54;24.62
65013;BME280;51715;39.432;-77.518;2024-02-14T23:12:54;100102.73;;;6.47;24.76
65013;BME280;51715;39.432;-77.518;2024-02-14T23:15:22;100102.67;;;6.47;25.06
65013;BME280;51715;39.432;-77.518;2024-02-14T23:17:51;100101.37;;;6.01;24.87
65013;BME280;51715;39.432;-77.518;2024-02-14T23:20:20;100115.80;;;4.59;27.23
65013;BME280;51715;39.432;-77.518;2024-02-14T23:22:50;100117.00;;;4.82;26.96
65013;BME280;51715;39.432;-77.518;2024-02-14T23:25:20;100118.28;;;5.07;26.76
65013;BME280;51715;39.432;-77.518;2024-02-14T23:27:49;100122.44;;;5.14;26.50
65013;BME280;51715;39.432;-77.518;2024-02-14T23:30:18;100123.30;;;5.57;26.24
65013;BME280;51715;39.432;-77.518;2024-02-14T23:32:47;100126.95;;;5.60;26.09
65013;BME280;51715;39.432;-77.518;2024-02-14T23:35:15;100134.40;;;5.48;26.12
65013;BME280;51715;39.432;-77.518;2024-02-14T23:37:43;100135.65;;;5.64;25.99
65013;BME280;51715;39.432;-77.518;2024-02-14T23:40:13;100135.59;;;5.57;26.25
65013;BME280;51715;39.432;-77.518;2024-02-14T23:42:42;100130.08;;;5.57;25.89
65013;BME280;51715;39.432;-77.518;2024-02-14T23:45:11;100131.68;;;5.40;26.52
65013;BME280;51715;39.432;-77.518;2024-02-14T23:47:42;100131.17;;;5.11;26.98
65013;BME280;51715;39.432;-77.518;2024-02-14T23:50:10;100138.41;;;5.28;26.31
65013;BME280;51715;39.432;-77.518;2024-02-14T23:52:43;100142.00;;;5.04;26.56
65013;BME280;51715;39.432;-77.518;2024-02-14T23:55:11;100149.04;;;5.56;26.11
65013;BME280;51715;39.432;-77.518;2024-02-14T23:57:42;100147.98;;;5.62;26.34
